sensor_id;sensor_type;location;lat;lon;timestamp;P1;durP1;ratioP1;P2;durP2;ratioP2
26742;SDS011;14341;51.256;22.478;2023-03-14T18:15:48;64.47;;;31.08;;
26742;SDS011;14341;51.256;22.478;2023-03-14T18:18:53;216.90;;;89.85;;
26742;SDS011;14341;51.256;22.478;2023-03-14T18:22:00;289.83;;;119.55;;
26742;SDS011;14341;51.256;22.478;2023-03-14T18:25:05;602.22;;;298.42;;
26742;SDS011;14341;51.256;22.478;2023-03-14T18:28:08;384.48;;;165.10;;
26742;SDS011;14341;51.256;22.478;2023-03-14T18:31:14;293.63;;;111.93;;
26742;SDS011;14341;51.256;22.478;2023-03-14T18:34:22;199.07;;;71.32;;
26742;SDS011;14341;51.256;22.478;2023-03-14T18:37:27;189.55;;;70.95;;
26742;SDS011;14341;51.256;22.478;2023-03-14T18:40:30;69.28;;;31.67;;
26742;SDS011;14341;51.256;22.478;2023-03-14T18:43:35;65.80;;;31.23;;
26742;SDS011;14341;51.256;22.478;2023-03-14T18:46:40;76.60;;;33.60;;
26742;SDS011;14341;51.256;22.478;2023-03-14T18:49:44;62.58;;;33.35;;
26742;SDS011;14341;51.256;22.478;2023-03-14T18:52:48;66.95;;;32.67;;
26742;SDS011;14341;51.256;22.478;2023-03-14T18:55:54;78.70;;;37.10;;
26742;SDS011;14341;51.256;22.478;2023-03-14T18:58:58;73.68;;;29.73;;
26742;SDS011;14341;51.256;22.478;2023-03-14T19:02:03;62.40;;;29.27;;
26742;SDS011;14341;51.256;22.478;2023-03-14T19:05:07;66.22;;;30.15;;
26742;SDS011;14341;51.256;22.478;2023-03-14T19:08:13;57.10;;;29.70;;
26742;SDS011;14341;51.256;22.478;2023-03-14T19:11:16;58.03;;;30.00;;
26742;SDS011;14341;51.256;22.478;2023-03-14T19:14:20;51.88;;;26.83;;
26742;SDS011;14341;51.256;22.478;2023-03-14T19:17:25;65.03;;;32.60;;
26742;SDS011;14341;51.256;22.478;2023-03-14T19:20:28;68.25;;;31.90;;
26742;SDS011;14341;51.256;22.478;2023-03-14T19:23:32;76.40;;;39.85;;
26742;SDS011;14341;51.256;22.478;2023-03-14T19:26:36;57.58;;;31.83;;
26742;SDS011;14341;51.256;22.478;2023-03-14T19:29:40;78.00;;;41.47;;
26742;SDS011;14341;51.256;22.478;2023-03-14T19:32:45;70.80;;;37.60;;
26742;SDS011;14341;51.256;22.478;2023-03-14T19:35:48;61.75;;;32.33;;
26742;SDS011;14341;51.256;22.478;2023-03-14T19:38:52;83.15;;;43.17;;
26742;SDS011;14341;51.256;22.478;2023-03-14T19:41:56;63.20;;;33.40;;
26742;SDS011;14341;51.256;22.478;2023-03-14T19:44:59;68.50;;;34.80;;
26742;SDS011;14341;51.256;22.478;2023-03-14T19:48:05;300.67;;;123.18;;
26742;SDS011;14341;51.256;22.478;2023-03-14T19:51:09;161.63;;;70.45;;
26742;SDS011;14341;51.256;22.478;2023-03-14T19:54:14;105.97;;;47.85;;
26742;SDS011;14341;51.256;22.478;2023-03-14T19:57:20;84.00;;;39.00;;
26742;SDS011;14341;51.256;22.478;2023-03-14T20:00:24;73.63;;;34.55;;
26742;SDS011;14341;51.256;22.478;2023-03-14T20:03:30;65.10;;;33.10;;
26742;SDS011;14341;51.256;22.478;2023-03-14T20:06:34;210.93;;;88.80;;
26742;SDS011;14341;51.256;22.478;2023-03-14T20:09:37;323.00;;;138.00;;
26742;SDS011;14341;51.256;22.478;2023-03-14T20:12:41;146.25;;;57.88;;
26742;SDS011;14341;51.256;22.478;2023-03-14T20:15:44;346.00;;;134.57;;
26742;SDS011;14341;51.256;22.478;2023-03-14T20:18:49;92.28;;;36.30;;
26742;SDS011;14341;51.256;22.478;2023-03-14T20:21:53;42.78;;;21.45;;
26742;SDS011;14341;51.256;22.478;2023-03-14T20:24:56;53.58;;;27.52;;
26742;SDS011;14341;51.256;22.478;2023-03-14T20:28:01;48.55;;;25.38;;
26742;SDS011;14341;51.256;22.478;2023-03-14T20:31:05;148.60;;;64.40;;
26742;SDS011;14341;51.256;22.478;2023-03-14T20:34:12;57.15;;;28.88;;
26742;SDS011;14341;51.256;22.478;2023-03-14T20:37:15;43.97;;;24.88;;
26742;SDS011;14341;51.256;22.478;2023-03-14T20:40:23;61.63;;;31.02;;
26742;SDS011;14341;51.256;22.478;2023-03-14T20:43:29;44.10;;;23.23;;
26742;SDS011;14341;51.256;22.478;2023-03-14T20:46:33;43.15;;;24.00;;
26742;SDS011;14341;51.256;22.478;2023-03-14T20:49:38;56.03;;;29.30;;
26742;SDS011;14341;51.256;22.478;2023-03-14T20:52:42;41.00;;;23.30;;
26742;SDS011;14341;51.256;22.478;2023-03-14T20:55:46;40.40;;;22.50;;
26742;SDS011;14341;51.256;22.478;2023-03-14T20:58:50;48.35;;;25.77;;
26742;SDS011;14341;51.256;22.478;2023-03-14T21:01:53;44.25;;;26.00;;
26742;SDS011;14341;51.256;22.478;2023-03-14T21:04:59;37.33;;;22.88;;
26742;SDS011;14341;51.256;22.478;2023-03-14T21:08:03;35.15;;;22.63;;
26742;SDS011;14341;51.256;22.478;2023-03-14T21:11:07;37.22;;;21.50;;
26742;SDS011;14341;51.256;22.478;2023-03-14T21:14:10;36.83;;;21.58;;
26742;SDS011;14341;51.256;22.478;2023-03-14T21:17:14;38.90;;;21.38;;
26742;SDS011;14341;51.256;22.478;2023-03-14T21:20:19;37.95;;;23.48;;
26742;SDS011;14341;51.256;22.478;2023-03-14T21:23:23;48.72;;;28.70;;
26742;SDS011;14341;51.256;22.478;2023-03-14T21:26:28;41.40;;;25.55;;
26742;SDS011;14341;51.256;22.478;2023-03-14T21:29:32;35.75;;;19.38;;
26742;SDS011;14341;51.256;22.478;2023-03-14T21:32:37;33.40;;;19.70;;
26742;SDS011;14341;51.256;22.478;2023-03-14T21:35:42;30.33;;;19.08;;
26742;SDS011;14341;51.256;22.478;2023-03-14T21:38:45;30.92;;;18.17;;
26742;SDS011;14341;51.256;22.478;2023-03-14T21:41:49;27.25;;;16.73;;
26742;SDS011;14341;51.256;22.478;2023-03-14T21:44:52;25.42;;;16.15;;
26742;SDS011;14341;51.256;22.478;2023-03-14T21:47:56;26.23;;;17.00;;
26742;SDS011;14341;51.256;22.478;2023-03-14T21:51:02;26.80;;;16.85;;
26742;SDS011;14341;51.256;22.478;2023-03-14T21:54:06;33.22;;;18.83;;
26742;SDS011;14341;51.256;22.478;2023-03-14T21:57:11;35.08;;;20.88;;
26742;SDS011;14341;51.256;22.478;2023-03-14T22:00:16;30.33;;;19.10;;
26742;SDS011;14341;51.256;22.478;2023-03-14T22:03:21;39.38;;;21.38;;
26742;SDS011;14341;51.256;22.478;2023-03-14T22:06:26;31.70;;;20.90;;
26742;SDS011;14341;51.256;22.478;2023-03-14T22:09:30;29.20;;;17.30;;
26742;SDS011;14341;51.256;22.478;2023-03-14T22:12:33;25.83;;;16.27;;
26742;SDS011;14341;51.256;22.478;2023-03-14T22:15:37;23.58;;;16.40;;
26742;SDS011;14341;51.256;22.478;2023-03-14T22:18:40;26.48;;;16.88;;
26742;SDS011;14341;51.256;22.478;2023-03-14T22:21:45;27.70;;;16.88;;
26742;SDS011;14341;51.256;22.478;2023-03-14T22:24:48;28.13;;;17.63;;
26742;SDS011;14341;51.256;22.478;2023-03-14T22:27:53;28.98;;;17.38;;
26742;SDS011;14341;51.256;22.478;2023-03-14T22:30:57;35.20;;;21.80;;
26742;SDS011;14341;51.256;22.478;2023-03-14T22:34:03;36.00;;;22.30;;
26742;SDS011;14341;51.256;22.478;2023-03-14T22:37:10;39.58;;;23.42;;
26742;SDS011;14341;51.256;22.478;2023-03-14T22:40:14;33.55;;;21.83;;
26742;SDS011;14341;51.256;22.478;2023-03-14T22:43:18;35.95;;;22.65;;
26742;SDS011;14341;51.256;22.478;2023-03-14T22:46:21;29.92;;;19.83;;
26742;SDS011;14341;51.256;22.478;2023-03-14T22:49:24;28.08;;;18.60;;
26742;SDS011;14341;51.256;22.478;2023-03-14T22:52:30;31.58;;;19.88;;
26742;SDS011;14341;51.256;22.478;2023-03-14T22:55:33;41.30;;;20.65;;
26742;SDS011;14341;51.256;22.478;2023-03-14T22:58:37;31.33;;;20.20;;
26742;SDS011;14341;51.256;22.478;2023-03-14T23:01:40;30.75;;;20.73;;
26742;SDS011;14341;51.256;22.478;2023-03-14T23:04:43;32.88;;;20.67;;
26742;SDS011;14341;51.256;22.478;2023-03-14T23:07:48;31.33;;;20.20;;
26742;SDS011;14341;51.256;22.478;2023-03-14T23:10:57;31.50;;;20.15;;
26742;SDS011;14341;51.256;22.478;2023-03-14T23:14:02;31.92;;;21.25;;
26742;SDS011;14341;51.256;22.478;2023-03-14T23:17:06;33.75;;;21.85;;
26742;SDS011;14341;51.256;22.478;2023-03-14T23:20:10;34.90;;;21.83;;
26742;SDS011;14341;51.256;22.478;2023-03-14T23:23:15;35.53;;;22.38;;
26742;SDS011;14341;51.256;22.478;2023-03-14T23:26:19;39.15;;;23.50;;
26742;SDS011;14341;51.256;22.478;2023-03-14T23:29:25;34.25;;;22.25;;
26742;SDS011;14341;51.256;22.478;2023-03-14T23:32:28;31.60;;;22.25;;
26742;SDS011;14341;51.256;22.478;2023-03-14T23:35:31;34.15;;;22.60;;
26742;SDS011;14341;51.256;22.478;2023-03-14T23:38:36;34.60;;;22.60;;
26742;SDS011;14341;51.256;22.478;2023-03-14T23:41:39;34.97;;;22.48;;
26742;SDS011;14341;51.256;22.478;2023-03-14T23:44:43;30.38;;;22.38;;
26742;SDS011;14341;51.256;22.478;2023-03-14T23:47:46;31.85;;;22.23;;
26742;SDS011;14341;51.256;22.478;2023-03-14T23:50:52;36.28;;;23.00;;
26742;SDS011;14341;51.256;22.478;2023-03-14T23:53:58;35.33;;;22.88;;
26742;SDS011;14341;51.256;22.478;2023-03-14T23:57:01;31.73;;;22.60;;
